WETTERDATEN

GESTERN
Time Temp. Taup. r.Fe. Druck 1h Prec. 24h Prec.
00:17 13.3 10.5 83 1027.4 0.0000 0.0000
00:27 13.2 10.4 83 1027.6 0.0000 0.0000
00:37 13.2 10.4 83 1027.6 0.0000 0.0000
01:07 13.1 10.5 84 1027.8 0.0000 0.0000
01:17 13.1 10.5 84 1027.7 0.0000 0.0000
01:27 13.1 10.5 84 1027.8 0.0000 0.0000
01:47 13.1 10.5 84 1027.6 0.0000 0.0000
01:57 13 10.4 84 1027.5 0.0000 0.0000
02:08 13 10.4 84 1027.7 0.0000 0.0000
02:17 13 10.4 84 1027.6 0.0000 0.0000
02:27 13 10.4 84 1027.8 0.0000 0.0000
02:38 13 10.4 84 1027.9 0.0000 0.0000
02:48 13 10.4 84 1027.7 0.0000 0.0000
02:58 13 10.4 84 1028 0.0000 0.0000
03:07 13 10.4 84 1027.8 0.0000 0.0000
03:18 12.9 10.3 84 1028 0.0000 0.0000
03:28 12.9 10.3 84 1028.1 0.0000 0.0000
03:38 12.9 10.3 84 1028 0.0000 0.0000
03:48 12.9 10.4 85 1028.2 0.0000 0.0000
03:58 12.8 10.2 84 1028.3 0.0000 0.0000
04:08 12.7 10.2 85 1028.2 0.0000 0.0000
04:18 12.7 10.2 85 1028.3 0.0000 0.0000
04:29 12.7 10.2 85 1028.4 0.0000 0.0000
04:39 12.7 10.2 85 1028.6 0.0000 0.0000
04:48 12.7 10.2 85 1028.5 0.0000 0.0000
04:59 12.7 10.2 85 1028.6 0.0000 0.0000
05:09 12.7 10.1 84 1028.7 0.0000 0.0000
05:19 12.7 9.9 83 1028.8 0.0000 0.0000
05:28 12.6 9.6 82 1028.8 0.0000 0.0000
05:39 12.6 9.6 82 1029 0.0000 0.0000
05:49 12.6 9.4 81 1029 0.0000 0.0000
05:59 12.5 9.3 81 1029.1 0.0000 0.0000
06:09 12.6 9.4 81 1029.3 0.0000 0.0000
06:19 13 9.8 81 1029.3 0.0000 0.0000
06:29 13.5 9.9 79 1029.4 0.0000 0.0000
06:39 13.6 10 79 1029.4 0.0000 0.0000
06:50 13.6 9.6 77 1029.5 0.0000 0.0000
06:59 13.5 9.7 78 1029.9 0.0000 0.0000
07:09 13.4 9.8 79 1029.6 0.0000 0.0000
07:19 13.9 9.7 76 1029.8 0.0000 0.0000
07:30 13.4 9.6 78 1030 0.0000 0.0000
07:40 13.2 9.5 78 1030.2 0.0000 0.0000
07:49 13.3 9.5 78 1030.2 0.0000 0.0000
08:00 13.2 9.6 79 1030.5 0.0000 0.0000
08:10 13.2 9.6 79 1030.5 0.0000 0.0000
08:20 13.2 9.6 79 1030.5 0.0000 0.0000
08:30 13.2 9.3 77 1030.7 0.0000 0.0000
08:40 13.6 9.6 77 1030.8 0.0000 0.0000
08:50 13.7 9.4 75 1030.9 0.0000 0.0000
09:00 13.6 9.5 76 1030.8 0.0000 0.0000
09:11 13.6 9.5 76 1030.9 0.0000 0.0000
09:21 13.8 9.3 74 1030.8 0.0000 0.0000
09:30 14.4 9.4 72 1031.1 0.0000 0.0000
09:40 15 9.6 70 1031 0.0000 0.0000
09:51 15.2 9.6 69 1030.9 0.0000 0.0000
10:01 15 9.6 70 1031 0.0000 0.0000
10:08 14.9 9.1 68 1031.3 0.0000 0.0000
10:36 16.1 9.5 65 1031.1 0.0000 0.0000
10:46 16.6 9.8 64 1031.3 0.0000 0.0000
10:56 17 10.1 64 1031.2 0.0000 0.0000
11:06 17.2 10.1 63 1031.5 0.0000 0.0000
11:16 17.6 9.8 60 1031.4 0.0000 0.0000
11:27 17.7 10.1 61 1031.6 0.0000 0.0000
11:37 18 10.1 60 1031.5 0.0000 0.0000
11:46 17.8 9.7 59 1031.6 0.0000 0.0000
11:56 18 10.1 60 1031.7 0.0000 0.0000
12:07 18.1 9.7 58 1031.8 0.0000 0.0000
12:17 18 9.9 59 1031.7 0.0000 0.0000
12:27 17.8 10.4 62 1031.8 0.0000 0.0000
12:37 18 10.4 61 1031.8 0.0000 0.0000
12:47 17.8 10.2 61 1031.9 0.0000 0.0000
12:57 17.6 10.2 62 1032 0.0000 0.0000
13:07 17.9 10 60 1031.7 0.0000 0.0000
13:17 18.1 10 59 1031.9 0.0000 0.0000
13:27 18 10.4 61 1031.9 0.0000 0.0000
13:37 18 10.4 61 1032 0.0000 0.0000
13:47 18 10.4 61 1032.1 0.0000 0.0000
13:57 18.1 10.2 60 1031.9 0.0000 0.0000
14:07 17.9 10.5 62 1032.1 0.0000 0.0000
14:17 18 10.4 61 1032.2 0.0000 0.0000
14:28 17.9 10.3 61 1032.2 0.0000 0.0000
14:38 17.8 10.4 62 1032.5 0.0000 0.0000
14:52 18.2 9.8 58 1032.5 0.0000 0.0000
15:02 18 9.6 58 1032.6 0.0000 0.0000
15:12 17.6 9.2 58 1032.5 0.0000 0.0000
15:22 17.5 9.4 59 1032.5 0.0000 0.0000
15:32 17.7 9.6 59 1032.4 0.0000 0.0000
15:42 17.7 9.8 60 1032.5 0.0000 0.0000
15:53 17.7 9.8 60 1032.4 0.0000 0.0000
16:03 17.7 10.1 61 1032.4 0.0000 0.0000
16:14 17.6 10 61 1032.4 0.0000 0.0000
16:28 17.4 10.1 62 1032.6 0.0000 0.0000
16:38 17.4 9.8 61 1032.6 0.0000 0.0000
16:48 17.6 10 61 1032.5 0.0000 0.0000
16:58 17.3 10 62 1032.5 0.0000 0.0000
17:08 17.3 10 62 1032.5 0.0000 0.0000
17:18 16.9 9.6 62 1032.7 0.0000 0.0000
17:29 17 9.7 62 1032.6 0.0000 0.0000
17:38 17 9.7 62 1032.7 0.0000 0.0000
17:48 16.6 9.8 64 1032.8 0.0000 0.0000
17:59 17 9.9 63 1032.7 0.0000 0.0000
18:09 16.9 9.8 63 1032.7 0.0000 0.0000
18:18 16.7 9.9 64 1032.9 0.0000 0.0000
18:29 16.7 9.9 64 1032.8 0.0000 0.0000
18:39 16.4 9.6 64 1032.9 0.0000 0.0000
18:49 16.2 9.4 64 1032.8 0.0000 0.0000
18:59 15.9 9.3 65 1033.1 0.0000 0.0000
19:09 15.7 9.4 66 1033.1 0.0000 0.0000
19:19 15.7 9.6 67 1033 0.0000 0.0000
19:29 15.6 9.5 67 1032.9 0.0000 0.0000
19:39 15.6 9.5 67 1033 0.0000 0.0000
19:49 15.4 9.3 67 1033.2 0.0000 0.0000
19:59 15.2 9.3 68 1033.4 0.0000 0.0000
20:09 14.8 9 68 1033.4 0.0000 0.0000
20:20 14.6 9 69 1033.5 0.0000 0.0000
20:30 14.4 9 70 1033.5 0.0000 0.0000
20:39 14.3 8.9 70 1033.6 0.0000 0.0000
21:00 13.9 8.5 70 1033.9 0.0000 0.0000
21:10 13.6 8.2 70 1034 0.0000 0.0000
21:19 13.2 8.1 71 1033.9 0.0000 0.0000
21:30 13 8.1 72 1034.2 0.0000 0.0000
21:40 12.8 7.9 72 1034.2 0.0000 0.0000
21:50 12.7 8 73 1034.3 0.0000 0.0000
22:00 12.6 7.9 73 1034.2 0.0000 0.0000
22:10 12.7 8 73 1034.2 0.0000 0.0000
22:20 12.7 8 73 1034.3 0.0000 0.0000
22:30 12.6 7.9 73 1034.3 0.0000 0.0000
22:41 12.6 7.9 73 1034.1 0.0000 0.0000
22:50 12.5 7.6 72 1034.2 0.0000 0.0000
23:00 12.4 7.7 73 1034.2 0.0000 0.0000
23:10 12.2 7.5 73 1034.2 0.0000 0.0000
23:21 12.1 7.4 73 1034.2 0.0000 0.0000
23:31 12 7.3 73 1034.4 0.0000
23:40 11.9 7.4 74 1034.3 0.0000
23:51 11.8 7.1 73 1034.4 0.0000

TAGESSTATISTIK

2020-05-25
TEMPERATUR
MITTEL
14.9
MAXIMUM
18.2
14:52
MINIMUM
11.8
23:51
LUFTDRUCK
MITTEL
1031.2
MAXIMUM
1034.4
23:31
MINIMUM
1027.4
00:17
TAUPUNKT
MITTEL
9.6
MAXIMUM
10.5
00:17
MINIMUM
7.1
23:51
FEUCHTIGKEIT
MITTEL
71
MAXIMUM
85
03:48
MINIMUM
58
12:07
NIEDERSCHLAG
REGEN STUNDE
0.0
REGEN TAG
0.0
TEMPERATUR (°C)
MINIMUM
11.8
MAXIMUM
18.2
MITTEL
14.9
LUFTDRUCK (hpa)
MINIMUM
1027.4
MAXIMUM
1034.4
MITTEL
1031.2
MESSGERÄT